Terminal Aerodrome Forecast
Issued by NWS

Home | Current Version | Previous Version | Text Only | Print | Product List | Glossary On
Versions: 1 2 3 4 5 6 7 8 9 10 11 12 13 14 15 16 17 18 19 20
000
FTUS43 KDVN 280520
TAFCID
TAF
KCID 280520Z 2806/2906 12003KT P6SM SCT200
     FM280700 12004KT 5SM BR SCT200
      TEMPO 2810/2814 3SM BR
     FM281400 14010KT P6SM SCT050 PROB30 2818/2822 4SM TSRA BKN035CB
     FM282200 15008KT P6SM BKN050
      TEMPO 2822/2902 3SM TSRA BKN040CB=

USA.gov is the U.S. government's official web portal to all federal, state and local government web resources and services.